sensor_id;sensor_type;location;lat;lon;timestamp;pressure;altitude;pressure_sealevel;temperature
68012;BMP180;54794;48.348;7.878;2024-02-04T00:21:06;100436.00;;;8.40
68012;BMP180;54794;48.348;7.878;2024-02-04T00:27:57;100439.00;;;8.20
68012;BMP180;54794;48.348;7.878;2024-02-04T00:31:09;100431.00;;;8.20
68012;BMP180;54794;48.348;7.878;2024-02-04T00:38:20;100381.00;;;8.40
68012;BMP180;54794;48.348;7.878;2024-02-04T00:44:45;100411.00;;;8.20
68012;BMP180;54794;48.348;7.878;2024-02-04T00:47:36;100395.00;;;8.00
68012;BMP180;54794;48.348;7.878;2024-02-04T00:55:06;100372.00;;;8.30
68012;BMP180;54794;48.348;7.878;2024-02-04T00:58:28;100352.00;;;8.40
68012;BMP180;54794;48.348;7.878;2024-02-04T01:02:10;100358.00;;;8.40
68012;BMP180;54794;48.348;7.878;2024-02-04T01:05:25;100355.00;;;8.40
68012;BMP180;54794;48.348;7.878;2024-02-04T01:08:56;100350.00;;;8.40
68012;BMP180;54794;48.348;7.878;2024-02-04T01:11:46;100356.00;;;8.30
68012;BMP180;54794;48.348;7.878;2024-02-04T01:19:24;100374.00;;;8.20
68012;BMP180;54794;48.348;7.878;2024-02-04T01:22:59;100380.00;;;8.10
68012;BMP180;54794;48.348;7.878;2024-02-04T01:27:03;100380.00;;;8.20
68012;BMP180;54794;48.348;7.878;2024-02-04T01:31:01;100365.00;;;8.20
68012;BMP180;54794;48.348;7.878;2024-02-04T01:38:52;100374.00;;;8.10
68012;BMP180;54794;48.348;7.878;2024-02-04T01:45:39;100372.00;;;7.40
68012;BMP180;54794;48.348;7.878;2024-02-04T01:52:25;100383.00;;;7.60
68012;BMP180;54794;48.348;7.878;2024-02-04T01:55:43;100401.00;;;7.60
68012;BMP180;54794;48.348;7.878;2024-02-04T02:02:25;100398.00;;;7.50
68012;BMP180;54794;48.348;7.878;2024-02-04T02:05:07;100397.00;;;7.60
68012;BMP180;54794;48.348;7.878;2024-02-04T02:11:51;100405.00;;;7.50
68012;BMP180;54794;48.348;7.878;2024-02-04T02:15:37;100403.00;;;7.70
68012;BMP180;54794;48.348;7.878;2024-02-04T02:23:28;100420.00;;;7.60
68012;BMP180;54794;48.348;7.878;2024-02-04T02:27:01;100431.00;;;7.80
68012;BMP180;54794;48.348;7.878;2024-02-04T02:34:22;100444.00;;;7.70
68012;BMP180;54794;48.348;7.878;2024-02-04T02:38:33;100440.00;;;7.60
68012;BMP180;54794;48.348;7.878;2024-02-04T02:42:12;100422.00;;;7.50
68012;BMP180;54794;48.348;7.878;2024-02-04T02:45:49;100429.00;;;7.50
68012;BMP180;54794;48.348;7.878;2024-02-04T02:49:09;100441.00;;;7.70
68012;BMP180;54794;48.348;7.878;2024-02-04T02:52:53;100439.00;;;7.70
68012;BMP180;54794;48.348;7.878;2024-02-04T02:56:21;100421.00;;;7.90
68012;BMP180;54794;48.348;7.878;2024-02-04T02:59:36;100426.00;;;7.80
68012;BMP180;54794;48.348;7.878;2024-02-04T03:02:39;100433.00;;;7.80
68012;BMP180;54794;48.348;7.878;2024-02-04T03:06:23;100450.00;;;7.80
68012;BMP180;54794;48.348;7.878;2024-02-04T03:10:07;100450.00;;;7.70
68012;BMP180;54794;48.348;7.878;2024-02-04T03:13:08;100446.00;;;7.70
68012;BMP180;54794;48.348;7.878;2024-02-04T03:19:44;100448.00;;;7.70
68012;BMP180;54794;48.348;7.878;2024-02-04T03:22:54;100426.00;;;7.70
68012;BMP180;54794;48.348;7.878;2024-02-04T03:26:29;100437.00;;;7.60
68012;BMP180;54794;48.348;7.878;2024-02-04T03:34:04;100451.00;;;7.70
68012;BMP180;54794;48.348;7.878;2024-02-04T03:37:10;100453.00;;;7.70
68012;BMP180;54794;48.348;7.878;2024-02-04T03:40:37;100437.00;;;7.80
68012;BMP180;54794;48.348;7.878;2024-02-04T03:43:54;100421.00;;;7.60
68012;BMP180;54794;48.348;7.878;2024-02-04T03:51:19;100406.00;;;7.80
68012;BMP180;54794;48.348;7.878;2024-02-04T03:57:44;100389.00;;;7.70
68012;BMP180;54794;48.348;7.878;2024-02-04T04:01:12;100389.00;;;7.90
68012;BMP180;54794;48.348;7.878;2024-02-04T04:04:08;100379.00;;;7.70
68012;BMP180;54794;48.348;7.878;2024-02-04T04:06:57;100384.00;;;7.80
68012;BMP180;54794;48.348;7.878;2024-02-04T04:10:03;100393.00;;;7.80
68012;BMP180;54794;48.348;7.878;2024-02-04T04:13:26;100382.00;;;7.90
68012;BMP180;54794;48.348;7.878;2024-02-04T04:19:51;100376.00;;;7.70
68012;BMP180;54794;48.348;7.878;2024-02-04T04:22:57;100365.00;;;7.80
68012;BMP180;54794;48.348;7.878;2024-02-04T04:25:56;100388.00;;;7.70
68012;BMP180;54794;48.348;7.878;2024-02-04T04:36:11;100386.00;;;7.90
68012;BMP180;54794;48.348;7.878;2024-02-04T04:43:18;100364.00;;;8.00
68012;BMP180;54794;48.348;7.878;2024-02-04T04:46:46;100367.00;;;8.10
68012;BMP180;54794;48.348;7.878;2024-02-04T04:53:11;100354.00;;;7.80
68012;BMP180;54794;48.348;7.878;2024-02-04T04:56:25;100350.00;;;8.00
68012;BMP180;54794;48.348;7.878;2024-02-04T04:59:20;100351.00;;;8.00
68012;BMP180;54794;48.348;7.878;2024-02-04T05:02:44;100361.00;;;8.10
68012;BMP180;54794;48.348;7.878;2024-02-04T05:05:38;100375.00;;;8.20
68012;BMP180;54794;48.348;7.878;2024-02-04T05:08:34;100383.00;;;7.90
68012;BMP180;54794;48.348;7.878;2024-02-04T05:14:42;100386.00;;;8.00
68012;BMP180;54794;48.348;7.878;2024-02-04T06:41:20;100429.00;;;7.60
68012;BMP180;54794;48.348;7.878;2024-02-04T06:44:20;100434.00;;;7.50
68012;BMP180;54794;48.348;7.878;2024-02-04T06:47:47;100428.00;;;7.50
68012;BMP180;54794;48.348;7.878;2024-02-04T06:50:38;100433.00;;;7.50
68012;BMP180;54794;48.348;7.878;2024-02-04T06:53:33;100442.00;;;7.60
68012;BMP180;54794;48.348;7.878;2024-02-04T06:56:34;100444.00;;;7.50
68012;BMP180;54794;48.348;7.878;2024-02-04T06:59:32;100446.00;;;7.50
68012;BMP180;54794;48.348;7.878;2024-02-04T07:02:21;100441.00;;;7.60
68012;BMP180;54794;48.348;7.878;2024-02-04T07:05:13;100452.00;;;7.50
68012;BMP180;54794;48.348;7.878;2024-02-04T07:08:00;100433.00;;;7.50
68012;BMP180;54794;48.348;7.878;2024-02-04T07:10:34;100428.00;;;7.40
68012;BMP180;54794;48.348;7.878;2024-02-04T07:13:41;100437.00;;;7.50
68012;BMP180;54794;48.348;7.878;2024-02-04T07:16:31;100436.00;;;7.60
68012;BMP180;54794;48.348;7.878;2024-02-04T07:19:28;100434.00;;;7.60
68012;BMP180;54794;48.348;7.878;2024-02-04T07:22:24;100441.00;;;7.60
68012;BMP180;54794;48.348;7.878;2024-02-04T07:25:54;100451.00;;;7.70
68012;BMP180;54794;48.348;7.878;2024-02-04T07:28:46;100436.00;;;7.60
68012;BMP180;54794;48.348;7.878;2024-02-04T07:31:43;100443.00;;;7.60
68012;BMP180;54794;48.348;7.878;2024-02-04T07:34:24;100456.00;;;7.50
68012;BMP180;54794;48.348;7.878;2024-02-04T07:37:15;100460.00;;;7.60
68012;BMP180;54794;48.348;7.878;2024-02-04T07:40:02;100452.00;;;7.60
68012;BMP180;54794;48.348;7.878;2024-02-04T07:42:44;100426.00;;;7.70
68012;BMP180;54794;48.348;7.878;2024-02-04T07:45:29;100411.00;;;7.80
68012;BMP180;54794;48.348;7.878;2024-02-04T07:48:13;100407.00;;;7.80
68012;BMP180;54794;48.348;7.878;2024-02-04T07:50:51;100406.00;;;7.70
68012;BMP180;54794;48.348;7.878;2024-02-04T07:53:44;100406.00;;;7.80
68012;BMP180;54794;48.348;7.878;2024-02-04T07:56:44;100391.00;;;7.90
68012;BMP180;54794;48.348;7.878;2024-02-04T07:59:33;100408.00;;;7.90
68012;BMP180;54794;48.348;7.878;2024-02-04T08:02:03;100397.00;;;7.90
68012;BMP180;54794;48.348;7.878;2024-02-04T08:07:48;100406.00;;;8.00
68012;BMP180;54794;48.348;7.878;2024-02-04T08:10:25;100409.00;;;7.90
68012;BMP180;54794;48.348;7.878;2024-02-04T08:12:57;100410.00;;;8.00
68012;BMP180;54794;48.348;7.878;2024-02-04T08:15:24;100411.00;;;8.10
68012;BMP180;54794;48.348;7.878;2024-02-04T08:17:54;100417.00;;;8.00
68012;BMP180;54794;48.348;7.878;2024-02-04T08:20:25;100416.00;;;8.00
68012;BMP180;54794;48.348;7.878;2024-02-04T08:23:16;100421.00;;;8.10
68012;BMP180;54794;48.348;7.878;2024-02-04T08:26:10;100414.00;;;8.10
68012;BMP180;54794;48.348;7.878;2024-02-04T08:29:12;100410.00;;;8.10
68012;BMP180;54794;48.348;7.878;2024-02-04T08:32:02;100417.00;;;8.30
68012;BMP180;54794;48.348;7.878;2024-02-04T08:34:48;100403.00;;;8.20
68012;BMP180;54794;48.348;7.878;2024-02-04T08:37:52;100405.00;;;8.40
68012;BMP180;54794;48.348;7.878;2024-02-04T08:41:01;100411.00;;;8.40
68012;BMP180;54794;48.348;7.878;2024-02-04T08:56:46;100415.00;;;8.50
68012;BMP180;54794;48.348;7.878;2024-02-04T09:00:21;100414.00;;;8.70
68012;BMP180;54794;48.348;7.878;2024-02-04T09:02:58;100410.00;;;8.70
68012;BMP180;54794;48.348;7.878;2024-02-04T09:06:26;100391.00;;;8.80
68012;BMP180;54794;48.348;7.878;2024-02-04T09:09:22;100375.00;;;8.80
68012;BMP180;54794;48.348;7.878;2024-02-04T09:12:11;100349.00;;;8.70
68012;BMP180;54794;48.348;7.878;2024-02-04T09:15:08;100366.00;;;8.80
68012;BMP180;54794;48.348;7.878;2024-02-04T09:17:35;100350.00;;;8.80
68012;BMP180;54794;48.348;7.878;2024-02-04T09:20:31;100366.00;;;8.80
68012;BMP180;54794;48.348;7.878;2024-02-04T09:23:00;100379.00;;;8.80
68012;BMP180;54794;48.348;7.878;2024-02-04T09:26:08;100381.00;;;9.00
68012;BMP180;54794;48.348;7.878;2024-02-04T09:29:16;100363.00;;;9.20
68012;BMP180;54794;48.348;7.878;2024-02-04T09:32:34;100368.00;;;9.10
68012;BMP180;54794;48.348;7.878;2024-02-04T09:35:43;100383.00;;;9.10
68012;BMP180;54794;48.348;7.878;2024-02-04T09:38:37;100387.00;;;9.10
68012;BMP180;54794;48.348;7.878;2024-02-04T09:45:02;100414.00;;;9.40
68012;BMP180;54794;48.348;7.878;2024-02-04T09:47:45;100404.00;;;9.50
68012;BMP180;54794;48.348;7.878;2024-02-04T09:50:35;100402.00;;;9.40
68012;BMP180;54794;48.348;7.878;2024-02-04T09:53:21;100391.00;;;9.20
68012;BMP180;54794;48.348;7.878;2024-02-04T09:56:00;100386.00;;;9.20
68012;BMP180;54794;48.348;7.878;2024-02-04T09:58:49;100388.00;;;9.10
68012;BMP180;54794;48.348;7.878;2024-02-04T10:01:39;100378.00;;;9.10
68012;BMP180;54794;48.348;7.878;2024-02-04T10:07:32;100350.00;;;9.30
68012;BMP180;54794;48.348;7.878;2024-02-04T10:10:17;100379.00;;;9.50
68012;BMP180;54794;48.348;7.878;2024-02-04T10:13:12;100406.00;;;9.30
68012;BMP180;54794;48.348;7.878;2024-02-04T10:16:00;100392.00;;;9.30
68012;BMP180;54794;48.348;7.878;2024-02-04T10:18:49;100377.00;;;9.40
68012;BMP180;54794;48.348;7.878;2024-02-04T10:21:43;100383.00;;;9.50
68012;BMP180;54794;48.348;7.878;2024-02-04T10:24:15;100365.00;;;9.50
68012;BMP180;54794;48.348;7.878;2024-02-04T10:26:53;100377.00;;;9.80
68012;BMP180;54794;48.348;7.878;2024-02-04T10:30:00;100370.00;;;10.00
68012;BMP180;54794;48.348;7.878;2024-02-04T10:32:59;100363.00;;;10.10
68012;BMP180;54794;48.348;7.878;2024-02-04T10:35:51;100357.00;;;10.30
68012;BMP180;54794;48.348;7.878;2024-02-04T10:38:54;100347.00;;;10.40
68012;BMP180;54794;48.348;7.878;2024-02-04T10:49:01;100353.00;;;10.40
68012;BMP180;54794;48.348;7.878;2024-02-04T10:52:01;100358.00;;;10.60
68012;BMP180;54794;48.348;7.878;2024-02-04T10:55:11;100342.00;;;10.50
68012;BMP180;54794;48.348;7.878;2024-02-04T11:04:36;100335.00;;;10.60
68012;BMP180;54794;48.348;7.878;2024-02-04T11:07:27;100315.00;;;10.60
68012;BMP180;54794;48.348;7.878;2024-02-04T11:10:25;100306.00;;;10.80
68012;BMP180;54794;48.348;7.878;2024-02-04T11:13:24;100303.00;;;10.60
68012;BMP180;54794;48.348;7.878;2024-02-04T11:17:04;100291.00;;;10.50
68012;BMP180;54794;48.348;7.878;2024-02-04T11:20:41;100284.00;;;10.50
68012;BMP180;54794;48.348;7.878;2024-02-04T11:27:28;100287.00;;;10.50
68012;BMP180;54794;48.348;7.878;2024-02-04T11:30:08;100292.00;;;10.70
68012;BMP180;54794;48.348;7.878;2024-02-04T11:32:49;100297.00;;;10.90
68012;BMP180;54794;48.348;7.878;2024-02-04T11:36:07;100303.00;;;10.80
68012;BMP180;54794;48.348;7.878;2024-02-04T11:40:00;100323.00;;;11.00
68012;BMP180;54794;48.348;7.878;2024-02-04T11:43:15;100309.00;;;11.10
68012;BMP180;54794;48.348;7.878;2024-02-04T11:47:02;100316.00;;;10.80
68012;BMP180;54794;48.348;7.878;2024-02-04T11:50:09;100295.00;;;10.70
68012;BMP180;54794;48.348;7.878;2024-02-04T11:53:29;100288.00;;;10.90
68012;BMP180;54794;48.348;7.878;2024-02-04T12:01:12;100282.00;;;11.00
68012;BMP180;54794;48.348;7.878;2024-02-04T12:04:29;100282.00;;;11.00
68012;BMP180;54794;48.348;7.878;2024-02-04T12:07:25;100279.00;;;11.20
68012;BMP180;54794;48.348;7.878;2024-02-04T12:10:42;100261.00;;;11.20
68012;BMP180;54794;48.348;7.878;2024-02-04T12:13:52;100245.00;;;11.20
68012;BMP180;54794;48.348;7.878;2024-02-04T12:16:40;100249.00;;;11.60
68012;BMP180;54794;48.348;7.878;2024-02-04T12:22:57;100270.00;;;11.20
68012;BMP180;54794;48.348;7.878;2024-02-04T12:26:34;100251.00;;;11.30
68012;BMP180;54794;48.348;7.878;2024-02-04T12:29:58;100259.00;;;11.00
68012;BMP180;54794;48.348;7.878;2024-02-04T12:36:58;100256.00;;;11.20
68012;BMP180;54794;48.348;7.878;2024-02-04T12:43:19;100235.00;;;11.20
68012;BMP180;54794;48.348;7.878;2024-02-04T12:50:07;100236.00;;;11.10
68012;BMP180;54794;48.348;7.878;2024-02-04T12:53:21;100249.00;;;10.90
68012;BMP180;54794;48.348;7.878;2024-02-04T12:56:06;100240.00;;;11.10
68012;BMP180;54794;48.348;7.878;2024-02-04T12:59:42;100251.00;;;10.90
68012;BMP180;54794;48.348;7.878;2024-02-04T13:02:37;100238.00;;;11.10
68012;BMP180;54794;48.348;7.878;2024-02-04T13:05:29;100230.00;;;11.00
68012;BMP180;54794;48.348;7.878;2024-02-04T13:08:18;100227.00;;;11.00
68012;BMP180;54794;48.348;7.878;2024-02-04T13:11:11;100224.00;;;11.30
68012;BMP180;54794;48.348;7.878;2024-02-04T13:14:21;100241.00;;;11.30
68012;BMP180;54794;48.348;7.878;2024-02-04T13:17:21;100228.00;;;11.20
68012;BMP180;54794;48.348;7.878;2024-02-04T13:21:03;100250.00;;;11.30
68012;BMP180;54794;48.348;7.878;2024-02-04T13:24:29;100242.00;;;11.20
68012;BMP180;54794;48.348;7.878;2024-02-04T13:31:40;100247.00;;;11.00
68012;BMP180;54794;48.348;7.878;2024-02-04T13:34:25;100233.00;;;11.00
68012;BMP180;54794;48.348;7.878;2024-02-04T13:37:36;100229.00;;;11.00
68012;BMP180;54794;48.348;7.878;2024-02-04T13:40:44;100218.00;;;11.00
68012;BMP180;54794;48.348;7.878;2024-02-04T13:44:15;100210.00;;;11.00
68012;BMP180;54794;48.348;7.878;2024-02-04T13:47:39;100211.00;;;10.90
68012;BMP180;54794;48.348;7.878;2024-02-04T13:51:11;100204.00;;;10.90
68012;BMP180;54794;48.348;7.878;2024-02-04T13:54:58;100192.00;;;11.10
68012;BMP180;54794;48.348;7.878;2024-02-04T14:02:20;100189.00;;;11.10
68012;BMP180;54794;48.348;7.878;2024-02-04T14:05:03;100187.00;;;11.10
68012;BMP180;54794;48.348;7.878;2024-02-04T14:08:21;100200.00;;;11.10
68012;BMP180;54794;48.348;7.878;2024-02-04T14:11:27;100207.00;;;11.00
68012;BMP180;54794;48.348;7.878;2024-02-04T14:18:18;100207.00;;;10.90
68012;BMP180;54794;48.348;7.878;2024-02-04T14:21:07;100210.00;;;10.90
68012;BMP180;54794;48.348;7.878;2024-02-04T14:30:33;100217.00;;;10.90
68012;BMP180;54794;48.348;7.878;2024-02-04T14:33:36;100217.00;;;10.90
68012;BMP180;54794;48.348;7.878;2024-02-04T14:36:56;100215.00;;;11.00
68012;BMP180;54794;48.348;7.878;2024-02-04T14:39:44;100221.00;;;10.90
68012;BMP180;54794;48.348;7.878;2024-02-04T14:46:04;100217.00;;;11.00
68012;BMP180;54794;48.348;7.878;2024-02-04T14:48:45;100229.00;;;10.90
68012;BMP180;54794;48.348;7.878;2024-02-04T14:51:50;100232.00;;;10.90
68012;BMP180;54794;48.348;7.878;2024-02-04T14:54:21;100225.00;;;11.20
68012;BMP180;54794;48.348;7.878;2024-02-04T14:57:08;100231.00;;;11.10
68012;BMP180;54794;48.348;7.878;2024-02-04T14:59:51;100239.00;;;11.00
68012;BMP180;54794;48.348;7.878;2024-02-04T15:02:51;100233.00;;;11.10
68012;BMP180;54794;48.348;7.878;2024-02-04T15:05:27;100225.00;;;10.90
68012;BMP180;54794;48.348;7.878;2024-02-04T15:08:07;100240.00;;;11.00
68012;BMP180;54794;48.348;7.878;2024-02-04T15:10:58;100241.00;;;11.10
68012;BMP180;54794;48.348;7.878;2024-02-04T15:13:33;100242.00;;;11.00
68012;BMP180;54794;48.348;7.878;2024-02-04T15:16:19;100234.00;;;10.90
68012;BMP180;54794;48.348;7.878;2024-02-04T15:19:04;100237.00;;;11.00
68012;BMP180;54794;48.348;7.878;2024-02-04T15:21:36;100235.00;;;11.00
68012;BMP180;54794;48.348;7.878;2024-02-04T15:24:21;100228.00;;;11.00
68012;BMP180;54794;48.348;7.878;2024-02-04T15:26:57;100231.00;;;11.00
68012;BMP180;54794;48.348;7.878;2024-02-04T15:29:37;100239.00;;;10.90
68012;BMP180;54794;48.348;7.878;2024-02-04T15:32:25;100239.00;;;10.90
68012;BMP180;54794;48.348;7.878;2024-02-04T15:35:01;100223.00;;;10.80
68012;BMP180;54794;48.348;7.878;2024-02-04T15:37:28;100233.00;;;10.70
68012;BMP180;54794;48.348;7.878;2024-02-04T15:39:58;100229.00;;;10.80
68012;BMP180;54794;48.348;7.878;2024-02-04T15:42:30;100228.00;;;10.80
68012;BMP180;54794;48.348;7.878;2024-02-04T15:45:04;100226.00;;;10.70
68012;BMP180;54794;48.348;7.878;2024-02-04T15:47:44;100224.00;;;10.70
68012;BMP180;54794;48.348;7.878;2024-02-04T15:50:27;100235.00;;;10.80
68012;BMP180;54794;48.348;7.878;2024-02-04T15:52:57;100229.00;;;10.70
68012;BMP180;54794;48.348;7.878;2024-02-04T15:55:33;100223.00;;;10.70
68012;BMP180;54794;48.348;7.878;2024-02-04T15:58:05;100215.00;;;10.80
68012;BMP180;54794;48.348;7.878;2024-02-04T16:00:33;100222.00;;;10.50
68012;BMP180;54794;48.348;7.878;2024-02-04T16:03:08;100218.00;;;10.80
68012;BMP180;54794;48.348;7.878;2024-02-04T16:05:36;100223.00;;;10.60
68012;BMP180;54794;48.348;7.878;2024-02-04T16:08:04;100214.00;;;10.60
68012;BMP180;54794;48.348;7.878;2024-02-04T16:10:34;100209.00;;;10.60
68012;BMP180;54794;48.348;7.878;2024-02-04T16:13:01;100203.00;;;10.60
68012;BMP180;54794;48.348;7.878;2024-02-04T16:15:31;100196.00;;;10.60
68012;BMP180;54794;48.348;7.878;2024-02-04T16:18:00;100195.00;;;10.40
68012;BMP180;54794;48.348;7.878;2024-02-04T16:20:28;100199.00;;;10.20
68012;BMP180;54794;48.348;7.878;2024-02-04T16:22:56;100192.00;;;10.30
68012;BMP180;54794;48.348;7.878;2024-02-04T16:25:27;100189.00;;;10.30
68012;BMP180;54794;48.348;7.878;2024-02-04T16:28:05;100201.00;;;10.30
68012;BMP180;54794;48.348;7.878;2024-02-04T16:30:40;100206.00;;;10.30
68012;BMP180;54794;48.348;7.878;2024-02-04T16:33:10;100209.00;;;10.10
68012;BMP180;54794;48.348;7.878;2024-02-04T16:35:40;100213.00;;;10.20
68012;BMP180;54794;48.348;7.878;2024-02-04T16:38:10;100217.00;;;10.10
68012;BMP180;54794;48.348;7.878;2024-02-04T16:40:40;100209.00;;;10.20
68012;BMP180;54794;48.348;7.878;2024-02-04T16:43:09;100217.00;;;10.20
68012;BMP180;54794;48.348;7.878;2024-02-04T16:45:40;100215.00;;;10.10
68012;BMP180;54794;48.348;7.878;2024-02-04T16:48:10;100233.00;;;10.10
68012;BMP180;54794;48.348;7.878;2024-02-04T16:50:45;100232.00;;;10.00
68012;BMP180;54794;48.348;7.878;2024-02-04T16:53:25;100235.00;;;9.90
68012;BMP180;54794;48.348;7.878;2024-02-04T16:55:52;100232.00;;;9.90
68012;BMP180;54794;48.348;7.878;2024-02-04T16:58:22;100252.00;;;9.90
68012;BMP180;54794;48.348;7.878;2024-02-04T17:05:23;100249.00;;;9.80
68012;BMP180;54794;48.348;7.878;2024-02-04T17:09:08;100260.00;;;9.80
68012;BMP180;54794;48.348;7.878;2024-02-04T17:11:47;100259.00;;;9.80
68012;BMP180;54794;48.348;7.878;2024-02-04T17:15:09;100256.00;;;9.50
68012;BMP180;54794;48.348;7.878;2024-02-04T17:25:31;100260.00;;;9.40
68012;BMP180;54794;48.348;7.878;2024-02-04T17:28:43;100282.00;;;9.50
68012;BMP180;54794;48.348;7.878;2024-02-04T17:31:51;100270.00;;;9.40
68012;BMP180;54794;48.348;7.878;2024-02-04T17:35:37;100255.00;;;9.40
68012;BMP180;54794;48.348;7.878;2024-02-04T17:43:33;100256.00;;;9.40
68012;BMP180;54794;48.348;7.878;2024-02-04T17:46:50;100254.00;;;9.30
68012;BMP180;54794;48.348;7.878;2024-02-04T17:54:01;100258.00;;;9.10
68012;BMP180;54794;48.348;7.878;2024-02-04T17:56:49;100255.00;;;9.20
68012;BMP180;54794;48.348;7.878;2024-02-04T17:59:35;100261.00;;;9.30
68012;BMP180;54794;48.348;7.878;2024-02-04T18:06:16;100254.00;;;9.30
68012;BMP180;54794;48.348;7.878;2024-02-04T18:09:19;100264.00;;;9.30
68012;BMP180;54794;48.348;7.878;2024-02-04T18:12:30;100259.00;;;9.10
68012;BMP180;54794;48.348;7.878;2024-02-04T18:15:03;100239.00;;;9.10
68012;BMP180;54794;48.348;7.878;2024-02-04T18:17:57;100247.00;;;9.10
68012;BMP180;54794;48.348;7.878;2024-02-04T18:27:38;100269.00;;;9.00
68012;BMP180;54794;48.348;7.878;2024-02-04T18:30:15;100257.00;;;9.00
68012;BMP180;54794;48.348;7.878;2024-02-04T18:32:48;100263.00;;;9.00
68012;BMP180;54794;48.348;7.878;2024-02-04T18:35:16;100266.00;;;9.00
68012;BMP180;54794;48.348;7.878;2024-02-04T18:37:51;100258.00;;;8.90
68012;BMP180;54794;48.348;7.878;2024-02-04T18:40:24;100242.00;;;8.80
68012;BMP180;54794;48.348;7.878;2024-02-04T18:42:59;100245.00;;;8.80
68012;BMP180;54794;48.348;7.878;2024-02-04T18:45:30;100240.00;;;8.90
68012;BMP180;54794;48.348;7.878;2024-02-04T18:48:16;100243.00;;;8.90
68012;BMP180;54794;48.348;7.878;2024-02-04T18:51:01;100254.00;;;8.90
68012;BMP180;54794;48.348;7.878;2024-02-04T18:56:27;100264.00;;;8.90
68012;BMP180;54794;48.348;7.878;2024-02-04T18:58:57;100266.00;;;8.90
68012;BMP180;54794;48.348;7.878;2024-02-04T19:01:26;100268.00;;;8.80
68012;BMP180;54794;48.348;7.878;2024-02-04T19:04:30;100264.00;;;8.90
68012;BMP180;54794;48.348;7.878;2024-02-04T19:07:01;100258.00;;;8.90
68012;BMP180;54794;48.348;7.878;2024-02-04T19:09:38;100262.00;;;8.90
68012;BMP180;54794;48.348;7.878;2024-02-04T19:12:21;100257.00;;;8.90
68012;BMP180;54794;48.348;7.878;2024-02-04T19:14:55;100263.00;;;8.90
68012;BMP180;54794;48.348;7.878;2024-02-04T19:17:37;100264.00;;;8.90
68012;BMP180;54794;48.348;7.878;2024-02-04T19:20:11;100258.00;;;8.80
68012;BMP180;54794;48.348;7.878;2024-02-04T19:23:01;100264.00;;;8.80
68012;BMP180;54794;48.348;7.878;2024-02-04T19:25:39;100263.00;;;8.80
68012;BMP180;54794;48.348;7.878;2024-02-04T19:28:12;100277.00;;;8.80
68012;BMP180;54794;48.348;7.878;2024-02-04T19:30:45;100277.00;;;8.80
68012;BMP180;54794;48.348;7.878;2024-02-04T19:33:18;100269.00;;;8.90
68012;BMP180;54794;48.348;7.878;2024-02-04T19:35:53;100271.00;;;8.90
68012;BMP180;54794;48.348;7.878;2024-02-04T19:38:29;100270.00;;;8.70
68012;BMP180;54794;48.348;7.878;2024-02-04T19:41:02;100259.00;;;8.80
68012;BMP180;54794;48.348;7.878;2024-02-04T19:43:35;100263.00;;;8.90
68012;BMP180;54794;48.348;7.878;2024-02-04T19:46:16;100265.00;;;8.90
68012;BMP180;54794;48.348;7.878;2024-02-04T19:49:35;100268.00;;;8.90
68012;BMP180;54794;48.348;7.878;2024-02-04T19:52:23;100266.00;;;8.90
68012;BMP180;54794;48.348;7.878;2024-02-04T19:55:08;100258.00;;;8.90
68012;BMP180;54794;48.348;7.878;2024-02-04T19:57:40;100258.00;;;8.90
68012;BMP180;54794;48.348;7.878;2024-02-04T20:00:20;100251.00;;;8.90
68012;BMP180;54794;48.348;7.878;2024-02-04T20:02:52;100261.00;;;8.80
68012;BMP180;54794;48.348;7.878;2024-02-04T20:05:45;100264.00;;;8.90
68012;BMP180;54794;48.348;7.878;2024-02-04T20:08:12;100252.00;;;8.80
68012;BMP180;54794;48.348;7.878;2024-02-04T20:10:51;100269.00;;;8.80
68012;BMP180;54794;48.348;7.878;2024-02-04T20:13:23;100261.00;;;8.60
68012;BMP180;54794;48.348;7.878;2024-02-04T20:16:08;100250.00;;;8.50
68012;BMP180;54794;48.348;7.878;2024-02-04T20:18:45;100249.00;;;8.60
68012;BMP180;54794;48.348;7.878;2024-02-04T20:21:26;100255.00;;;8.60
68012;BMP180;54794;48.348;7.878;2024-02-04T20:24:22;100260.00;;;8.80
68012;BMP180;54794;48.348;7.878;2024-02-04T20:27:02;100265.00;;;8.80
68012;BMP180;54794;48.348;7.878;2024-02-04T20:29:53;100261.00;;;8.60
68012;BMP180;54794;48.348;7.878;2024-02-04T20:32:36;100261.00;;;8.50
68012;BMP180;54794;48.348;7.878;2024-02-04T20:35:08;100257.00;;;8.60
68012;BMP180;54794;48.348;7.878;2024-02-04T20:37:38;100259.00;;;8.50
68012;BMP180;54794;48.348;7.878;2024-02-04T20:40:10;100240.00;;;8.40
68012;BMP180;54794;48.348;7.878;2024-02-04T20:42:43;100246.00;;;8.40
68012;BMP180;54794;48.348;7.878;2024-02-04T20:45:14;100252.00;;;8.50
68012;BMP180;54794;48.348;7.878;2024-02-04T20:47:53;100256.00;;;8.40
68012;BMP180;54794;48.348;7.878;2024-02-04T20:50:31;100253.00;;;8.40
68012;BMP180;54794;48.348;7.878;2024-02-04T20:53:00;100250.00;;;8.50
68012;BMP180;54794;48.348;7.878;2024-02-04T20:55:30;100247.00;;;8.40
68012;BMP180;54794;48.348;7.878;2024-02-04T20:58:08;100245.00;;;8.30
68012;BMP180;54794;48.348;7.878;2024-02-04T21:00:42;100241.00;;;8.30
68012;BMP180;54794;48.348;7.878;2024-02-04T21:03:10;100234.00;;;8.30
68012;BMP180;54794;48.348;7.878;2024-02-04T21:05:40;100231.00;;;8.20
68012;BMP180;54794;48.348;7.878;2024-02-04T21:08:12;100239.00;;;8.10
68012;BMP180;54794;48.348;7.878;2024-02-04T21:10:39;100237.00;;;8.20
68012;BMP180;54794;48.348;7.878;2024-02-04T21:13:09;100246.00;;;8.00
68012;BMP180;54794;48.348;7.878;2024-02-04T21:15:39;100240.00;;;8.20
68012;BMP180;54794;48.348;7.878;2024-02-04T21:18:06;100233.00;;;8.10
68012;BMP180;54794;48.348;7.878;2024-02-04T21:20:37;100227.00;;;8.20
68012;BMP180;54794;48.348;7.878;2024-02-04T21:23:11;100228.00;;;8.20
68012;BMP180;54794;48.348;7.878;2024-02-04T21:25:51;100227.00;;;8.20
68012;BMP180;54794;48.348;7.878;2024-02-04T21:28:27;100230.00;;;8.20
68012;BMP180;54794;48.348;7.878;2024-02-04T21:31:21;100229.00;;;8.10
68012;BMP180;54794;48.348;7.878;2024-02-04T21:33:54;100225.00;;;8.10
68012;BMP180;54794;48.348;7.878;2024-02-04T21:36:27;100235.00;;;8.10
68012;BMP180;54794;48.348;7.878;2024-02-04T21:38:54;100232.00;;;8.00
68012;BMP180;54794;48.348;7.878;2024-02-04T21:41:27;100228.00;;;8.00